Terminal Aerodrome Forecast
Issued by NWS Paducah, KY

Home | Current Version | Previous Version | Text Only | Print | Product List | Glossary On
Versions: 1 2 3 4 5 6 7 8 9 10 11 12 13 14 15 16 17 18 19 20 21 22 23
542
FTUS43 KPAH 192320
TAFEVV
TAF
KEVV 192320Z 2000/2024 23013KT P6SM FEW050
     FM200200 23005KT P6SM FEW200
     FM201600 26010KT P6SM SCT040 BKN200 PROB30 2020/2024 4SM -TSRA
      OVC025CB=

USA.gov is the U.S. government's official web portal to all federal, state and local government web resources and services.